sensor_id;sensor_type;location;lat;lon;timestamp;temperature;humidity
50162;DHT22;36061;48.116;11.612;2023-02-01T00:00:04;3.80;99.90
50162;DHT22;36061;48.116;11.612;2023-02-01T00:02:31;3.80;99.90
50162;DHT22;36061;48.116;11.612;2023-02-01T00:04:58;3.80;99.90
50162;DHT22;36061;48.116;11.612;2023-02-01T00:07:25;3.90;99.90
50162;DHT22;36061;48.116;11.612;2023-02-01T00:09:53;3.90;99.90
50162;DHT22;36061;48.116;11.612;2023-02-01T00:12:20;3.90;99.90
50162;DHT22;36061;48.116;11.612;2023-02-01T00:14:48;3.90;99.90
50162;DHT22;36061;48.116;11.612;2023-02-01T00:17:15;3.90;99.90
50162;DHT22;36061;48.116;11.612;2023-02-01T00:19:43;4.00;99.90
50162;DHT22;36061;48.116;11.612;2023-02-01T00:22:10;4.00;99.90
50162;DHT22;36061;48.116;11.612;2023-02-01T00:24:37;4.00;99.90
50162;DHT22;36061;48.116;11.612;2023-02-01T00:27:04;4.00;99.90
50162;DHT22;36061;48.116;11.612;2023-02-01T00:29:31;4.00;99.90
50162;DHT22;36061;48.116;11.612;2023-02-01T00:32:00;4.10;99.90
50162;DHT22;36061;48.116;11.612;2023-02-01T00:34:27;4.20;99.90
50162;DHT22;36061;48.116;11.612;2023-02-01T00:36:55;4.10;99.90
50162;DHT22;36061;48.116;11.612;2023-02-01T00:39:22;4.10;99.90
50162;DHT22;36061;48.116;11.612;2023-02-01T00:41:49;4.10;99.90
50162;DHT22;36061;48.116;11.612;2023-02-01T00:44:16;4.10;99.90
50162;DHT22;36061;48.116;11.612;2023-02-01T00:46:44;4.10;99.90
50162;DHT22;36061;48.116;11.612;2023-02-01T00:49:12;4.00;99.90
50162;DHT22;36061;48.116;11.612;2023-02-01T00:51:39;4.00;99.90
50162;DHT22;36061;48.116;11.612;2023-02-01T00:54:07;3.90;99.90
50162;DHT22;36061;48.116;11.612;2023-02-01T00:56:34;3.80;99.90
50162;DHT22;36061;48.116;11.612;2023-02-01T00:59:01;3.70;99.90
50162;DHT22;36061;48.116;11.612;2023-02-01T01:01:28;3.60;99.90
50162;DHT22;36061;48.116;11.612;2023-02-01T01:03:58;3.50;99.90
50162;DHT22;36061;48.116;11.612;2023-02-01T01:06:28;3.40;99.90
50162;DHT22;36061;48.116;11.612;2023-02-01T01:08:58;3.30;99.90
50162;DHT22;36061;48.116;11.612;2023-02-01T01:11:28;3.20;99.90
50162;DHT22;36061;48.116;11.612;2023-02-01T01:13:57;3.20;99.90
50162;DHT22;36061;48.116;11.612;2023-02-01T01:16:27;3.10;99.90
50162;DHT22;36061;48.116;11.612;2023-02-01T01:18:55;3.20;99.90
50162;DHT22;36061;48.116;11.612;2023-02-01T01:21:23;3.20;99.90
50162;DHT22;36061;48.116;11.612;2023-02-01T01:23:51;3.10;99.90
50162;DHT22;36061;48.116;11.612;2023-02-01T01:26:20;3.10;99.90
50162;DHT22;36061;48.116;11.612;2023-02-01T01:28:48;3.10;99.90
50162;DHT22;36061;48.116;11.612;2023-02-01T01:31:17;3.20;99.90
50162;DHT22;36061;48.116;11.612;2023-02-01T01:33:47;3.20;99.90
50162;DHT22;36061;48.116;11.612;2023-02-01T01:36:14;3.20;99.90
50162;DHT22;36061;48.116;11.612;2023-02-01T01:38:42;3.20;99.90
50162;DHT22;36061;48.116;11.612;2023-02-01T01:41:15;3.30;99.90
50162;DHT22;36061;48.116;11.612;2023-02-01T01:43:48;3.20;99.90
50162;DHT22;36061;48.116;11.612;2023-02-01T01:46:18;3.30;99.90
50162;DHT22;36061;48.116;11.612;2023-02-01T01:48:48;3.30;99.90
50162;DHT22;36061;48.116;11.612;2023-02-01T01:51:19;3.30;99.90
50162;DHT22;36061;48.116;11.612;2023-02-01T01:53:52;3.30;99.90
50162;DHT22;36061;48.116;11.612;2023-02-01T01:56:23;3.20;99.90
50162;DHT22;36061;48.116;11.612;2023-02-01T01:58:52;3.20;99.90
50162;DHT22;36061;48.116;11.612;2023-02-01T02:01:20;3.20;99.90
50162;DHT22;36061;48.116;11.612;2023-02-01T02:03:47;3.20;99.90
50162;DHT22;36061;48.116;11.612;2023-02-01T02:06:26;3.10;99.90
50162;DHT22;36061;48.116;11.612;2023-02-01T02:08:55;3.10;99.90
50162;DHT22;36061;48.116;11.612;2023-02-01T02:11:23;3.00;99.90
50162;DHT22;36061;48.116;11.612;2023-02-01T02:13:52;3.00;99.90
50162;DHT22;36061;48.116;11.612;2023-02-01T02:17:03;2.90;99.90
50162;DHT22;36061;48.116;11.612;2023-02-01T02:20:08;2.90;99.90
50162;DHT22;36061;48.116;11.612;2023-02-01T02:23:10;2.90;99.90
50162;DHT22;36061;48.116;11.612;2023-02-01T02:26:13;2.90;99.90
50162;DHT22;36061;48.116;11.612;2023-02-01T02:34:39;3.00;99.90
50162;DHT22;36061;48.116;11.612;2023-02-01T02:37:13;3.00;99.90
50162;DHT22;36061;48.116;11.612;2023-02-01T02:39:48;3.00;99.90
50162;DHT22;36061;48.116;11.612;2023-02-01T02:42:25;3.00;99.90
50162;DHT22;36061;48.116;11.612;2023-02-01T02:45:16;3.10;99.90
50162;DHT22;36061;48.116;11.612;2023-02-01T02:48:09;3.10;99.90
50162;DHT22;36061;48.116;11.612;2023-02-01T02:50:44;3.20;99.90
50162;DHT22;36061;48.116;11.612;2023-02-01T02:53:34;3.20;99.90
50162;DHT22;36061;48.116;11.612;2023-02-01T02:56:21;3.20;99.90
50162;DHT22;36061;48.116;11.612;2023-02-01T02:59:09;3.20;99.90
50162;DHT22;36061;48.116;11.612;2023-02-01T03:01:55;3.10;99.90
50162;DHT22;36061;48.116;11.612;2023-02-01T03:04:40;3.20;99.90
50162;DHT22;36061;48.116;11.612;2023-02-01T03:10:47;3.20;99.90
50162;DHT22;36061;48.116;11.612;2023-02-01T03:13:20;3.20;99.90
50162;DHT22;36061;48.116;11.612;2023-02-01T03:15:53;3.20;99.90
50162;DHT22;36061;48.116;11.612;2023-02-01T03:18:28;3.20;99.90
50162;DHT22;36061;48.116;11.612;2023-02-01T03:20:59;3.20;99.90
50162;DHT22;36061;48.116;11.612;2023-02-01T03:23:33;3.40;99.90
50162;DHT22;36061;48.116;11.612;2023-02-01T03:26:04;3.30;99.90
50162;DHT22;36061;48.116;11.612;2023-02-01T03:28:34;3.30;99.90
50162;DHT22;36061;48.116;11.612;2023-02-01T03:31:03;3.30;99.90
50162;DHT22;36061;48.116;11.612;2023-02-01T03:33:31;3.30;99.90
50162;DHT22;36061;48.116;11.612;2023-02-01T03:36:15;3.30;99.90
50162;DHT22;36061;48.116;11.612;2023-02-01T03:38:49;3.30;99.90
50162;DHT22;36061;48.116;11.612;2023-02-01T03:41:21;3.30;99.90
50162;DHT22;36061;48.116;11.612;2023-02-01T03:43:54;3.40;99.90
50162;DHT22;36061;48.116;11.612;2023-02-01T03:46:27;3.40;99.90
50162;DHT22;36061;48.116;11.612;2023-02-01T03:49:01;3.40;99.90
50162;DHT22;36061;48.116;11.612;2023-02-01T03:51:30;3.40;99.90
50162;DHT22;36061;48.116;11.612;2023-02-01T03:54:01;3.40;99.90
50162;DHT22;36061;48.116;11.612;2023-02-01T03:56:31;3.40;99.90
50162;DHT22;36061;48.116;11.612;2023-02-01T03:59:00;3.40;99.90
50162;DHT22;36061;48.116;11.612;2023-02-01T04:01:32;3.50;99.90
50162;DHT22;36061;48.116;11.612;2023-02-01T04:04:00;3.50;99.90
50162;DHT22;36061;48.116;11.612;2023-02-01T04:06:28;3.50;99.90
50162;DHT22;36061;48.116;11.612;2023-02-01T04:09:01;3.50;99.90
50162;DHT22;36061;48.116;11.612;2023-02-01T04:11:28;3.50;99.90
50162;DHT22;36061;48.116;11.612;2023-02-01T04:13:56;3.50;99.90
50162;DHT22;36061;48.116;11.612;2023-02-01T04:16:23;3.50;99.90
50162;DHT22;36061;48.116;11.612;2023-02-01T04:18:50;3.50;99.90
50162;DHT22;36061;48.116;11.612;2023-02-01T04:21:17;3.50;99.90
50162;DHT22;36061;48.116;11.612;2023-02-01T04:23:44;3.50;99.90
50162;DHT22;36061;48.116;11.612;2023-02-01T04:26:13;3.60;99.90
50162;DHT22;36061;48.116;11.612;2023-02-01T04:28:42;3.60;99.90
50162;DHT22;36061;48.116;11.612;2023-02-01T04:31:09;3.60;99.90
50162;DHT22;36061;48.116;11.612;2023-02-01T04:33:37;3.60;99.90
50162;DHT22;36061;48.116;11.612;2023-02-01T04:36:04;3.60;99.90
50162;DHT22;36061;48.116;11.612;2023-02-01T04:38:31;3.60;99.90
50162;DHT22;36061;48.116;11.612;2023-02-01T04:40:59;3.60;99.90
50162;DHT22;36061;48.116;11.612;2023-02-01T04:43:28;3.60;99.90
50162;DHT22;36061;48.116;11.612;2023-02-01T04:45:56;3.60;99.90
50162;DHT22;36061;48.116;11.612;2023-02-01T04:48:23;3.60;99.90
50162;DHT22;36061;48.116;11.612;2023-02-01T04:50:50;3.60;99.90
50162;DHT22;36061;48.116;11.612;2023-02-01T04:53:17;3.60;99.90
50162;DHT22;36061;48.116;11.612;2023-02-01T04:55:47;3.60;99.90
50162;DHT22;36061;48.116;11.612;2023-02-01T04:58:14;3.60;99.90
50162;DHT22;36061;48.116;11.612;2023-02-01T05:00:43;3.60;99.90
50162;DHT22;36061;48.116;11.612;2023-02-01T05:03:10;3.60;99.90
50162;DHT22;36061;48.116;11.612;2023-02-01T05:05:37;3.60;99.90
50162;DHT22;36061;48.116;11.612;2023-02-01T05:08:04;3.60;99.90
50162;DHT22;36061;48.116;11.612;2023-02-01T05:10:32;3.60;99.90
50162;DHT22;36061;48.116;11.612;2023-02-01T05:12:59;3.60;99.90
50162;DHT22;36061;48.116;11.612;2023-02-01T05:15:45;3.60;99.90
50162;DHT22;36061;48.116;11.612;2023-02-01T05:18:12;3.70;99.90
50162;DHT22;36061;48.116;11.612;2023-02-01T05:20:39;3.70;99.90
50162;DHT22;36061;48.116;11.612;2023-02-01T05:23:06;3.60;99.90
50162;DHT22;36061;48.116;11.612;2023-02-01T05:25:34;3.60;99.90
50162;DHT22;36061;48.116;11.612;2023-02-01T05:28:01;3.60;99.90
50162;DHT22;36061;48.116;11.612;2023-02-01T05:30:28;3.60;99.90
50162;DHT22;36061;48.116;11.612;2023-02-01T05:32:57;3.50;99.90
50162;DHT22;36061;48.116;11.612;2023-02-01T05:35:24;3.50;99.90
50162;DHT22;36061;48.116;11.612;2023-02-01T05:37:51;3.70;99.90
50162;DHT22;36061;48.116;11.612;2023-02-01T05:40:19;3.60;99.90
50162;DHT22;36061;48.116;11.612;2023-02-01T05:42:46;3.70;99.90
50162;DHT22;36061;48.116;11.612;2023-02-01T05:45:13;3.70;99.90
50162;DHT22;36061;48.116;11.612;2023-02-01T05:47:41;3.70;99.90
50162;DHT22;36061;48.116;11.612;2023-02-01T05:50:10;3.70;99.90
50162;DHT22;36061;48.116;11.612;2023-02-01T05:52:37;3.60;99.90
50162;DHT22;36061;48.116;11.612;2023-02-01T05:55:05;3.60;99.90
50162;DHT22;36061;48.116;11.612;2023-02-01T05:57:33;3.70;99.90
50162;DHT22;36061;48.116;11.612;2023-02-01T06:00:00;3.70;99.90
50162;DHT22;36061;48.116;11.612;2023-02-01T06:02:27;3.60;99.90
50162;DHT22;36061;48.116;11.612;2023-02-01T06:04:54;3.70;99.90
50162;DHT22;36061;48.116;11.612;2023-02-01T06:07:23;3.70;99.90
50162;DHT22;36061;48.116;11.612;2023-02-01T06:09:51;3.70;99.90
50162;DHT22;36061;48.116;11.612;2023-02-01T06:12:19;3.70;99.90
50162;DHT22;36061;48.116;11.612;2023-02-01T06:14:46;3.70;99.90
50162;DHT22;36061;48.116;11.612;2023-02-01T06:17:13;3.70;99.90
50162;DHT22;36061;48.116;11.612;2023-02-01T06:19:41;3.70;99.90
50162;DHT22;36061;48.116;11.612;2023-02-01T06:22:09;3.80;99.90
50162;DHT22;36061;48.116;11.612;2023-02-01T06:24:38;3.70;99.90
50162;DHT22;36061;48.116;11.612;2023-02-01T06:27:05;3.70;99.90
50162;DHT22;36061;48.116;11.612;2023-02-01T06:29:32;3.70;99.90
50162;DHT22;36061;48.116;11.612;2023-02-01T06:32:00;3.70;99.90
50162;DHT22;36061;48.116;11.612;2023-02-01T06:34:27;3.70;99.90
50162;DHT22;36061;48.116;11.612;2023-02-01T06:36:54;3.70;99.90
50162;DHT22;36061;48.116;11.612;2023-02-01T06:39:21;3.80;99.90
50162;DHT22;36061;48.116;11.612;2023-02-01T06:41:50;3.70;99.90
50162;DHT22;36061;48.116;11.612;2023-02-01T06:44:17;3.70;99.90
50162;DHT22;36061;48.116;11.612;2023-02-01T06:46:44;3.80;99.90
50162;DHT22;36061;48.116;11.612;2023-02-01T06:49:12;3.80;99.90
50162;DHT22;36061;48.116;11.612;2023-02-01T06:51:40;3.80;99.90
50162;DHT22;36061;48.116;11.612;2023-02-01T06:54:07;3.80;99.90
50162;DHT22;36061;48.116;11.612;2023-02-01T06:56:35;3.90;99.90
50162;DHT22;36061;48.116;11.612;2023-02-01T06:59:05;3.90;99.90
50162;DHT22;36061;48.116;11.612;2023-02-01T07:01:32;3.90;99.90
50162;DHT22;36061;48.116;11.612;2023-02-01T07:04:00;3.90;99.90
50162;DHT22;36061;48.116;11.612;2023-02-01T07:06:27;3.90;99.90
50162;DHT22;36061;48.116;11.612;2023-02-01T07:08:54;3.90;99.90
50162;DHT22;36061;48.116;11.612;2023-02-01T07:11:22;3.80;99.90
50162;DHT22;36061;48.116;11.612;2023-02-01T07:13:50;3.90;99.90
50162;DHT22;36061;48.116;11.612;2023-02-01T07:16:19;3.90;99.90
50162;DHT22;36061;48.116;11.612;2023-02-01T07:18:47;3.90;99.90
50162;DHT22;36061;48.116;11.612;2023-02-01T07:21:14;3.90;99.90
50162;DHT22;36061;48.116;11.612;2023-02-01T07:23:41;3.90;99.90
50162;DHT22;36061;48.116;11.612;2023-02-01T07:26:11;3.90;99.90
50162;DHT22;36061;48.116;11.612;2023-02-01T07:28:39;3.90;99.90
50162;DHT22;36061;48.116;11.612;2023-02-01T07:31:07;3.90;99.90
50162;DHT22;36061;48.116;11.612;2023-02-01T07:33:36;3.90;99.90
50162;DHT22;36061;48.116;11.612;2023-02-01T07:36:06;4.00;99.90
50162;DHT22;36061;48.116;11.612;2023-02-01T07:38:34;4.00;99.90
50162;DHT22;36061;48.116;11.612;2023-02-01T07:41:03;4.00;99.90
50162;DHT22;36061;48.116;11.612;2023-02-01T07:43:31;4.00;99.90
50162;DHT22;36061;48.116;11.612;2023-02-01T07:45:59;4.00;99.90
50162;DHT22;36061;48.116;11.612;2023-02-01T07:48:26;4.00;99.90
50162;DHT22;36061;48.116;11.612;2023-02-01T07:50:59;4.10;99.90
50162;DHT22;36061;48.116;11.612;2023-02-01T07:53:28;4.10;99.90
50162;DHT22;36061;48.116;11.612;2023-02-01T07:55:55;4.10;99.90
50162;DHT22;36061;48.116;11.612;2023-02-01T07:58:23;4.10;99.90
50162;DHT22;36061;48.116;11.612;2023-02-01T08:00:50;4.10;99.90
50162;DHT22;36061;48.116;11.612;2023-02-01T08:03:38;4.10;99.90
50162;DHT22;36061;48.116;11.612;2023-02-01T08:06:06;4.10;99.90
50162;DHT22;36061;48.116;11.612;2023-02-01T08:08:34;4.10;99.90
50162;DHT22;36061;48.116;11.612;2023-02-01T08:11:02;4.20;99.90
50162;DHT22;36061;48.116;11.612;2023-02-01T08:13:30;4.20;99.90
50162;DHT22;36061;48.116;11.612;2023-02-01T08:15:58;4.30;99.90
50162;DHT22;36061;48.116;11.612;2023-02-01T08:18:26;4.30;99.90
50162;DHT22;36061;48.116;11.612;2023-02-01T08:20:53;4.30;99.90
50162;DHT22;36061;48.116;11.612;2023-02-01T08:23:22;4.30;99.90
50162;DHT22;36061;48.116;11.612;2023-02-01T08:25:50;4.40;99.90
50162;DHT22;36061;48.116;11.612;2023-02-01T08:28:17;4.40;99.90
50162;DHT22;36061;48.116;11.612;2023-02-01T08:30:44;4.40;99.90
50162;DHT22;36061;48.116;11.612;2023-02-01T08:33:12;4.40;99.90
50162;DHT22;36061;48.116;11.612;2023-02-01T08:35:39;4.40;99.90
50162;DHT22;36061;48.116;11.612;2023-02-01T08:38:06;4.50;99.90
50162;DHT22;36061;48.116;11.612;2023-02-01T08:40:35;4.50;99.90
50162;DHT22;36061;48.116;11.612;2023-02-01T08:43:02;4.50;99.90
50162;DHT22;36061;48.116;11.612;2023-02-01T08:45:30;4.60;99.90
50162;DHT22;36061;48.116;11.612;2023-02-01T08:47:57;4.50;99.90
50162;DHT22;36061;48.116;11.612;2023-02-01T08:50:25;4.60;99.90
50162;DHT22;36061;48.116;11.612;2023-02-01T08:52:53;4.60;99.90
50162;DHT22;36061;48.116;11.612;2023-02-01T08:55:20;4.70;99.90
50162;DHT22;36061;48.116;11.612;2023-02-01T08:57:49;4.70;99.90
50162;DHT22;36061;48.116;11.612;2023-02-01T09:00:17;4.70;99.90
50162;DHT22;36061;48.116;11.612;2023-02-01T09:02:45;4.80;99.90
50162;DHT22;36061;48.116;11.612;2023-02-01T09:05:12;4.80;99.90
50162;DHT22;36061;48.116;11.612;2023-02-01T09:07:40;4.80;99.90
50162;DHT22;36061;48.116;11.612;2023-02-01T09:10:08;4.90;99.90
50162;DHT22;36061;48.116;11.612;2023-02-01T09:12:35;4.90;99.90
50162;DHT22;36061;48.116;11.612;2023-02-01T09:15:06;4.90;99.90
50162;DHT22;36061;48.116;11.612;2023-02-01T09:17:34;4.90;99.90
50162;DHT22;36061;48.116;11.612;2023-02-01T09:20:02;4.90;99.90
50162;DHT22;36061;48.116;11.612;2023-02-01T09:22:29;4.90;99.90
50162;DHT22;36061;48.116;11.612;2023-02-01T09:24:56;4.90;99.90
50162;DHT22;36061;48.116;11.612;2023-02-01T09:27:24;4.90;99.90
50162;DHT22;36061;48.116;11.612;2023-02-01T09:29:51;5.00;99.90
50162;DHT22;36061;48.116;11.612;2023-02-01T09:32:20;5.00;99.90
50162;DHT22;36061;48.116;11.612;2023-02-01T09:34:48;5.00;99.90
50162;DHT22;36061;48.116;11.612;2023-02-01T09:37:15;5.00;99.90
50162;DHT22;36061;48.116;11.612;2023-02-01T09:39:43;5.00;99.90
50162;DHT22;36061;48.116;11.612;2023-02-01T09:42:21;5.10;99.90
50162;DHT22;36061;48.116;11.612;2023-02-01T09:45:05;5.10;99.90
50162;DHT22;36061;48.116;11.612;2023-02-01T09:47:35;5.10;99.90
50162;DHT22;36061;48.116;11.612;2023-02-01T09:50:04;5.10;99.90
50162;DHT22;36061;48.116;11.612;2023-02-01T09:52:38;5.20;99.90
50162;DHT22;36061;48.116;11.612;2023-02-01T09:55:09;5.20;99.90
50162;DHT22;36061;48.116;11.612;2023-02-01T09:57:43;5.30;99.90
50162;DHT22;36061;48.116;11.612;2023-02-01T10:00:17;5.30;99.90
50162;DHT22;36061;48.116;11.612;2023-02-01T10:02:49;5.30;99.90
50162;DHT22;36061;48.116;11.612;2023-02-01T10:05:26;5.30;99.90
50162;DHT22;36061;48.116;11.612;2023-02-01T10:08:03;5.30;99.90
50162;DHT22;36061;48.116;11.612;2023-02-01T10:10:35;5.30;99.90
50162;DHT22;36061;48.116;11.612;2023-02-01T10:13:24;5.30;99.90
50162;DHT22;36061;48.116;11.612;2023-02-01T10:16:05;5.30;99.90
50162;DHT22;36061;48.116;11.612;2023-02-01T10:18:51;5.20;99.90
50162;DHT22;36061;48.116;11.612;2023-02-01T10:21:32;5.20;99.90
50162;DHT22;36061;48.116;11.612;2023-02-01T10:24:20;5.30;99.90
50162;DHT22;36061;48.116;11.612;2023-02-01T10:26:56;5.30;99.90
50162;DHT22;36061;48.116;11.612;2023-02-01T10:29:30;5.30;99.90
50162;DHT22;36061;48.116;11.612;2023-02-01T10:32:02;5.30;99.90
50162;DHT22;36061;48.116;11.612;2023-02-01T10:34:33;5.30;99.90
50162;DHT22;36061;48.116;11.612;2023-02-01T10:37:07;5.20;99.90
50162;DHT22;36061;48.116;11.612;2023-02-01T10:39:36;5.20;99.90
50162;DHT22;36061;48.116;11.612;2023-02-01T10:42:04;5.30;99.90
50162;DHT22;36061;48.116;11.612;2023-02-01T10:44:34;5.20;99.90
50162;DHT22;36061;48.116;11.612;2023-02-01T10:47:05;5.20;99.90
50162;DHT22;36061;48.116;11.612;2023-02-01T10:49:38;5.20;99.90
50162;DHT22;36061;48.116;11.612;2023-02-01T10:52:12;5.20;99.90
50162;DHT22;36061;48.116;11.612;2023-02-01T10:54:41;5.30;99.90
50162;DHT22;36061;48.116;11.612;2023-02-01T10:57:09;5.30;99.90
50162;DHT22;36061;48.116;11.612;2023-02-01T10:59:36;5.20;99.90
50162;DHT22;36061;48.116;11.612;2023-02-01T11:02:16;5.20;99.90
50162;DHT22;36061;48.116;11.612;2023-02-01T11:04:46;5.30;99.90
50162;DHT22;36061;48.116;11.612;2023-02-01T11:07:17;5.30;99.90
50162;DHT22;36061;48.116;11.612;2023-02-01T11:09:49;5.30;99.90
50162;DHT22;36061;48.116;11.612;2023-02-01T11:12:28;5.30;99.90
50162;DHT22;36061;48.116;11.612;2023-02-01T11:15:03;5.20;99.90
50162;DHT22;36061;48.116;11.612;2023-02-01T11:17:34;5.10;99.90
50162;DHT22;36061;48.116;11.612;2023-02-01T11:20:09;5.10;99.90
50162;DHT22;36061;48.116;11.612;2023-02-01T11:22:46;5.10;99.90
50162;DHT22;36061;48.116;11.612;2023-02-01T11:25:16;5.20;99.90
50162;DHT22;36061;48.116;11.612;2023-02-01T11:27:45;5.20;99.90
50162;DHT22;36061;48.116;11.612;2023-02-01T11:30:17;5.30;99.90
50162;DHT22;36061;48.116;11.612;2023-02-01T11:32:46;5.30;99.90
50162;DHT22;36061;48.116;11.612;2023-02-01T11:35:19;5.20;99.90
50162;DHT22;36061;48.116;11.612;2023-02-01T11:37:52;5.20;99.90
50162;DHT22;36061;48.116;11.612;2023-02-01T11:40:26;5.20;99.90
50162;DHT22;36061;48.116;11.612;2023-02-01T11:42:56;5.20;99.90
50162;DHT22;36061;48.116;11.612;2023-02-01T11:45:27;5.20;99.90
50162;DHT22;36061;48.116;11.612;2023-02-01T11:47:56;5.20;99.90
50162;DHT22;36061;48.116;11.612;2023-02-01T11:50:30;5.10;99.90
50162;DHT22;36061;48.116;11.612;2023-02-01T11:53:15;5.00;99.90
50162;DHT22;36061;48.116;11.612;2023-02-01T11:56:02;5.00;99.90
50162;DHT22;36061;48.116;11.612;2023-02-01T11:58:47;5.00;99.90
50162;DHT22;36061;48.116;11.612;2023-02-01T12:01:30;5.00;99.90
50162;DHT22;36061;48.116;11.612;2023-02-01T12:04:18;5.00;99.90
50162;DHT22;36061;48.116;11.612;2023-02-01T12:06:52;4.90;99.90
50162;DHT22;36061;48.116;11.612;2023-02-01T12:09:38;4.90;99.90
50162;DHT22;36061;48.116;11.612;2023-02-01T12:12:17;5.00;99.90
50162;DHT22;36061;48.116;11.612;2023-02-01T12:14:56;5.20;99.90
50162;DHT22;36061;48.116;11.612;2023-02-01T12:17:41;5.20;99.90
50162;DHT22;36061;48.116;11.612;2023-02-01T12:20:22;5.10;99.90
50162;DHT22;36061;48.116;11.612;2023-02-01T12:23:04;5.10;99.90
50162;DHT22;36061;48.116;11.612;2023-02-01T12:25:45;5.10;99.90
50162;DHT22;36061;48.116;11.612;2023-02-01T12:31:27;5.00;99.90
50162;DHT22;36061;48.116;11.612;2023-02-01T12:34:12;5.00;99.90
50162;DHT22;36061;48.116;11.612;2023-02-01T12:36:48;5.00;99.90
50162;DHT22;36061;48.116;11.612;2023-02-01T12:39:23;4.90;99.90
50162;DHT22;36061;48.116;11.612;2023-02-01T12:41:56;4.90;99.90
50162;DHT22;36061;48.116;11.612;2023-02-01T12:44:32;4.80;99.90
50162;DHT22;36061;48.116;11.612;2023-02-01T12:47:05;4.80;99.90
50162;DHT22;36061;48.116;11.612;2023-02-01T12:49:45;4.90;99.90
50162;DHT22;36061;48.116;11.612;2023-02-01T12:52:18;4.90;99.90
50162;DHT22;36061;48.116;11.612;2023-02-01T12:54:50;4.80;99.90
50162;DHT22;36061;48.116;11.612;2023-02-01T12:57:25;4.80;99.90
50162;DHT22;36061;48.116;11.612;2023-02-01T13:00:06;4.90;99.90
50162;DHT22;36061;48.116;11.612;2023-02-01T13:02:40;4.90;99.90
50162;DHT22;36061;48.116;11.612;2023-02-01T13:05:17;4.90;99.90
50162;DHT22;36061;48.116;11.612;2023-02-01T13:07:48;5.10;99.90
50162;DHT22;36061;48.116;11.612;2023-02-01T13:10:21;5.00;99.90
50162;DHT22;36061;48.116;11.612;2023-02-01T13:12:54;5.00;99.90
50162;DHT22;36061;48.116;11.612;2023-02-01T13:15:26;5.00;99.90
50162;DHT22;36061;48.116;11.612;2023-02-01T13:17:57;5.00;99.90
50162;DHT22;36061;48.116;11.612;2023-02-01T13:20:30;5.10;99.90
50162;DHT22;36061;48.116;11.612;2023-02-01T13:23:02;5.10;99.90
50162;DHT22;36061;48.116;11.612;2023-02-01T13:25:37;5.00;99.90
50162;DHT22;36061;48.116;11.612;2023-02-01T13:28:10;5.00;99.90
50162;DHT22;36061;48.116;11.612;2023-02-01T13:30:51;5.10;99.90
50162;DHT22;36061;48.116;11.612;2023-02-01T13:33:35;5.10;99.90
50162;DHT22;36061;48.116;11.612;2023-02-01T13:36:23;5.10;99.90
50162;DHT22;36061;48.116;11.612;2023-02-01T13:39:22;5.10;99.90
50162;DHT22;36061;48.116;11.612;2023-02-01T13:41:56;5.10;99.90
50162;DHT22;36061;48.116;11.612;2023-02-01T13:44:28;5.10;99.90
50162;DHT22;36061;48.116;11.612;2023-02-01T13:47:01;5.10;99.90
50162;DHT22;36061;48.116;11.612;2023-02-01T13:49:31;5.20;99.90
50162;DHT22;36061;48.116;11.612;2023-02-01T13:52:04;5.10;99.90
50162;DHT22;36061;48.116;11.612;2023-02-01T13:54:33;5.10;99.90
50162;DHT22;36061;48.116;11.612;2023-02-01T13:57:05;5.20;99.90
50162;DHT22;36061;48.116;11.612;2023-02-01T14:00:06;5.30;99.90
50162;DHT22;36061;48.116;11.612;2023-02-01T14:03:06;5.20;99.90
50162;DHT22;36061;48.116;11.612;2023-02-01T14:05:55;5.10;99.90
50162;DHT22;36061;48.116;11.612;2023-02-01T14:08:36;5.10;99.90
50162;DHT22;36061;48.116;11.612;2023-02-01T14:11:03;5.10;99.90
50162;DHT22;36061;48.116;11.612;2023-02-01T14:13:33;5.00;99.90
50162;DHT22;36061;48.116;11.612;2023-02-01T14:16:15;5.00;99.90
50162;DHT22;36061;48.116;11.612;2023-02-01T14:19:00;5.10;99.90
50162;DHT22;36061;48.116;11.612;2023-02-01T14:21:29;5.00;99.90
50162;DHT22;36061;48.116;11.612;2023-02-01T14:24:00;5.00;99.90
50162;DHT22;36061;48.116;11.612;2023-02-01T14:26:41;5.00;99.90
50162;DHT22;36061;48.116;11.612;2023-02-01T14:29:25;5.10;99.90
50162;DHT22;36061;48.116;11.612;2023-02-01T14:32:00;4.90;99.90
50162;DHT22;36061;48.116;11.612;2023-02-01T14:34:36;5.00;99.90
50162;DHT22;36061;48.116;11.612;2023-02-01T14:37:11;5.00;99.90
50162;DHT22;36061;48.116;11.612;2023-02-01T14:40:00;5.00;99.90
50162;DHT22;36061;48.116;11.612;2023-02-01T14:42:31;5.00;99.90
50162;DHT22;36061;48.116;11.612;2023-02-01T14:48:44;4.80;99.90
50162;DHT22;36061;48.116;11.612;2023-02-01T14:51:15;4.80;99.90
50162;DHT22;36061;48.116;11.612;2023-02-01T14:53:45;4.80;99.90
50162;DHT22;36061;48.116;11.612;2023-02-01T14:56:16;4.80;99.90
50162;DHT22;36061;48.116;11.612;2023-02-01T14:58:51;4.80;99.90
50162;DHT22;36061;48.116;11.612;2023-02-01T15:01:22;4.80;99.90
50162;DHT22;36061;48.116;11.612;2023-02-01T15:03:56;4.80;99.90
50162;DHT22;36061;48.116;11.612;2023-02-01T15:06:32;4.80;99.90
50162;DHT22;36061;48.116;11.612;2023-02-01T15:09:03;4.80;99.90
50162;DHT22;36061;48.116;11.612;2023-02-01T15:11:31;4.80;99.90
50162;DHT22;36061;48.116;11.612;2023-02-01T15:13:58;4.80;99.90
50162;DHT22;36061;48.116;11.612;2023-02-01T15:16:26;4.80;99.90
50162;DHT22;36061;48.116;11.612;2023-02-01T15:19:14;4.80;99.90
50162;DHT22;36061;48.116;11.612;2023-02-01T15:21:47;4.80;99.90
50162;DHT22;36061;48.116;11.612;2023-02-01T15:24:19;4.80;99.90
50162;DHT22;36061;48.116;11.612;2023-02-01T15:26:46;4.80;99.90
50162;DHT22;36061;48.116;11.612;2023-02-01T15:29:14;4.70;99.90
50162;DHT22;36061;48.116;11.612;2023-02-01T15:31:44;4.70;99.90
50162;DHT22;36061;48.116;11.612;2023-02-01T15:34:14;4.70;99.90
50162;DHT22;36061;48.116;11.612;2023-02-01T15:36:42;4.60;99.90
50162;DHT22;36061;48.116;11.612;2023-02-01T15:39:27;4.50;99.90
50162;DHT22;36061;48.116;11.612;2023-02-01T15:41:58;4.50;99.90
50162;DHT22;36061;48.116;11.612;2023-02-01T15:44:33;4.50;99.90
50162;DHT22;36061;48.116;11.612;2023-02-01T15:47:08;4.40;99.90
50162;DHT22;36061;48.116;11.612;2023-02-01T15:49:40;4.40;99.90
50162;DHT22;36061;48.116;11.612;2023-02-01T15:52:20;4.30;99.90
50162;DHT22;36061;48.116;11.612;2023-02-01T15:54:51;4.30;99.90
50162;DHT22;36061;48.116;11.612;2023-02-01T15:57:21;4.30;99.90
50162;DHT22;36061;48.116;11.612;2023-02-01T15:59:53;4.30;99.90
50162;DHT22;36061;48.116;11.612;2023-02-01T16:02:33;4.30;99.90
50162;DHT22;36061;48.116;11.612;2023-02-01T16:05:03;4.30;99.90
50162;DHT22;36061;48.116;11.612;2023-02-01T16:07:33;4.20;99.90
50162;DHT22;36061;48.116;11.612;2023-02-01T16:10:02;4.10;99.90
50162;DHT22;36061;48.116;11.612;2023-02-01T16:12:47;4.10;99.90
50162;DHT22;36061;48.116;11.612;2023-02-01T16:15:14;4.10;99.90